Mancos, CO

8:09 AM MDT on October 23, 2014 (GMT -0600)
East Canyon | Change Station
CLOSE
Current Station
Personal Weather Station
Location: Mancos, CO
Elevation: 2301 m
Nearby Weather Stations

Elev 2301 m 37.30 °N, 108.23 °W | Updated 28 minutes ago

Clear
Clear
2.6 °C
Feels Like 3 °C
N
0.0
Wind Variable Wind from NE
Gusts 11.3 km/h

Today
High -- | Low -- °C
--% Chance of Precip.
Yesterday
High -- | Low -- °C
Precip. -- mm
7:29 AM 6:25 PM
Waning Crescent, 0% visible
Pressure 1024 hPa
Visibility 16.1 kilometers
Clouds Clear
Windchill 3 °C
Dew Point -2 °C
Humidity 71%
Rainfall 0 mm
Snow Depth 0 in , 0 in
UV 0 out of 12
Pollen 2.40 out of 12
Air Quality Not available.
Flu Activity Sporadic
METAR KCEZ 231353Z AUTO 10003KT 10SM CLR 01/M01 A3028 RMK AO2 SLP238 T00061011

More Conditions Fewer Conditions

Pressure 1024 hPa
Visibility 16.1 kilometers
Clouds Clear
Windchill 3 °C
Dew Point -2 °C
Humidity 71%
Rainfall 0 mm
Snow Depth 0 in , 0 in
UV 0 out of 12
Pollen 2.40 out of 12
Air Quality Not available.
Flu Activity Sporadic
METAR KCEZ 231353Z AUTO 10003KT 10SM CLR 01/M01 A3028 RMK AO2 SLP238 T00061011

More Conditions Fewer Conditions

10-Day Weather Forecast

Almanac

Astronomy

Oct. 23, 2014 Rise Set
Actual Time 7:29 AM MDT 6:25 PM MDT
Civil Twilight 7:02 AM MDT 6:52 PM MDT
Nautical Twilight 6:32 AM MDT 7:22 PM MDT
Astronomical Twilight 6:01 AM MDT 7:52 PM MDT
Moon 7:12 AM MDT 6:29 PM MDT
Length of Visible Light 11h 49m
Length of Day
10h 56m
Tomorrow will be 2m 13s shorter.
Waning Crescent, 0% of the Moon is Illuminated
Today
Waning Crescent
Oct 23
New
Oct 30
First Quarter
Nov 6
Full
Nov 14
Last Quarter

Today's Extremes

State Highs State Lows

Community

WunderPhotos

Upload Photos

1,764,247 photos uploaded!

Nearby

Snow Depth

Station Depth Elevation
Sharkstooth 0 in 10720 ft
Columbus Basin 0 in 10785 ft
Scotch Creek 0 in 9100 ft
El Diente Peak 1 in 10200 ft
Cascade 0 in 8880 ft

Earthquake Activity

City Distance Mag. Time & Date
No recent earthquake activity has been reported nearby.
Minimum magnitude displayed is 2.5.

Coastal Water Temperatures

Place Temperature
No Stations Reporting

Nearby Weather Stations